Time;durP1;ratioP1;P1;durP2;ratioP2;P2;SDS_P1;SDS_P2;PMS_P1;PMS_P2;Temp;Humidity;BMP_temperature;BMP_pressure;BME280_temperature;BME280_humidity;BME280_pressure;Samples;Min_cycle;Max_cycle;Signal;HPM_P1;HPM_P2
2022/06/21 00:02:11;;;;;;;6.55;3.25;;;;;;;14.71;63.73;100973.19;5003687;28;20506;-77
2022/06/21 00:04:38;;;;;;;8.23;3.08;;;;;;;14.63;63.95;100980.75;5005383;28;20038;-77
2022/06/21 00:07:06;;;;;;;5.93;3.10;;;;;;;15.12;62.25;100981.84;5005005;28;20038;-77
2022/06/21 00:09:33;;;;;;;7.95;3.40;;;;;;;14.81;63.67;100980.41;5009222;28;20049;-77
2022/06/21 00:12:00;;;;;;;6.18;2.80;;;;;;;14.71;63.79;100981.94;5011890;28;20092;-77
2022/06/21 00:14:28;;;;;;;6.72;3.00;;;;;;;14.79;63.96;100984.06;5004753;28;20052;-77
2022/06/21 00:16:54;;;;;;;3.47;2.50;;;;;;;14.91;63.63;100984.13;5013089;28;20091;-77
2022/06/21 00:19:24;;;;;;;5.45;2.92;;;;;;;14.92;63.35;100990.25;5024742;28;20045;-77
2022/06/21 00:21:50;;;;;;;6.57;3.10;;;;;;;14.88;63.60;100984.34;5030755;28;20049;-77
2022/06/21 00:24:17;;;;;;;8.88;3.38;;;;;;;14.77;64.23;100986.84;5023965;28;20076;-77
2022/06/21 00:26:45;;;;;;;5.43;3.08;;;;;;;14.69;64.11;100989.13;5024354;28;20482;-77
2022/06/21 00:29:12;;;;;;;8.32;3.20;;;;;;;14.55;64.80;100982.09;5023666;28;20386;-77
2022/06/21 00:31:45;;;;;;;7.45;3.40;;;;;;;13.94;67.48;100989.47;5023026;28;20462;-77
2022/06/21 00:34:13;;;;;;;;;;;;;;;14.21;66.35;100985.13;5024677;28;20563;-77
2022/06/21 00:36:40;;;;;;;6.43;3.08;;;;;;;14.25;66.86;100989.28;5016355;28;19925;-77
2022/06/21 00:39:07;;;;;;;7.63;2.92;;;;;;;14.27;66.72;100987.38;5021495;28;20107;-77
2022/06/21 00:41:41;;;;;;;7.55;3.67;;;;;;;14.51;66.02;100995.56;5023757;28;20505;-77
2022/06/21 00:44:11;;;;;;;9.98;3.20;;;;;;;14.60;65.94;100997.63;5023350;28;20107;-77
2022/06/21 00:46:43;;;;;;;8.30;3.05;;;;;;;14.83;65.47;101007.53;5026975;28;20045;-77
2022/06/21 00:49:17;;;;;;;14.27;3.37;;;;;;;15.06;64.25;100998.97;5027878;28;20103;-77
2022/06/21 00:51:44;;;;;;;9.25;3.22;;;;;;;14.74;65.49;101002.88;5026400;28;20720;-77
2022/06/21 00:54:18;;;;;;;7.25;3.03;;;;;;;14.28;67.25;101006.69;5026518;28;20099;-77
2022/06/21 00:56:51;;;;;;;9.27;3.38;;;;;;;14.49;66.65;100997.44;5026028;28;20045;-77
2022/06/21 00:59:20;;;;;;;10.18;3.47;;;;;;;14.53;66.47;101005.09;5027451;28;20063;-77
2022/06/21 01:01:49;;;;;;;7.38;3.30;;;;;;;14.41;67.57;101007.66;5028733;28;20118;-77
2022/06/21 01:04:20;;;;;;;9.55;3.25;;;;;;;14.48;67.31;101012.47;5026423;28;20099;-76
2022/06/21 01:06:51;;;;;;;10.52;3.13;;;;;;;14.66;66.76;101012.22;5027909;28;20053;-76
2022/06/21 01:09:21;;;;;;;6.72;2.88;;;;;;;14.67;66.84;101009.47;5025750;28;20049;-76
2022/06/21 01:11:51;;;;;;;15.60;3.55;;;;;;;14.32;67.81;101016.97;5028357;28;20095;-76
2022/06/21 01:14:21;;;;;;;14.57;4.18;;;;;;;14.38;68.15;101013.97;5026944;28;20565;-77
2022/06/21 01:16:50;;;;;;;12.38;3.30;;;;;;;14.51;67.58;101019.31;5025935;28;20049;-77
2022/06/21 01:19:25;;;;;;;11.90;3.30;;;;;;;14.17;69.19;101017.91;5025586;28;20099;-77
2022/06/21 01:21:57;;;;;;;9.35;3.50;;;;;;;14.13;69.23;101017.25;5029063;28;20579;-77
2022/06/21 01:24:32;;;;;;;9.20;3.60;;;;;;;14.16;69.15;101026.75;5026758;28;20103;-76
2022/06/21 01:27:03;;;;;;;11.15;3.53;;;;;;;14.21;68.84;101024.69;5028294;28;20107;-77
2022/06/21 01:29:35;;;;;;;15.00;3.38;;;;;;;13.85;70.23;101021.69;5024092;28;20041;-77
2022/06/21 01:32:04;;;;;;;10.90;3.33;;;;;;;14.14;69.49;101026.03;5026766;28;20037;-76
2022/06/21 01:34:30;;;;;;;7.50;3.25;;;;;;;14.22;69.30;101023.78;5025145;28;20076;-77
2022/06/21 01:37:03;;;;;;;10.90;3.70;;;;;;;14.43;68.37;101025.09;5028812;28;20042;-77
2022/06/21 01:39:34;;;;;;;8.40;3.30;;;;;;;14.43;68.32;101026.88;5026549;28;20049;-77
2022/06/21 01:42:06;;;;;;;13.10;3.88;;;;;;;14.28;68.97;101026.00;5024776;28;20048;-77
2022/06/21 01:44:38;;;;;;;11.57;4.22;;;;;;;14.13;69.57;101030.44;5026302;28;20057;-77
2022/06/21 01:47:09;;;;;;;11.18;4.18;;;;;;;13.95;70.12;101028.94;5025161;28;20041;-76
2022/06/21 01:49:37;;;;;;;10.35;4.10;;;;;;;14.14;69.49;101028.66;5025902;28;20076;-76
2022/06/21 01:52:11;;;;;;;13.70;3.70;;;;;;;14.23;69.32;101020.16;5026396;28;20091;-76
2022/06/21 01:54:44;;;;;;;15.25;4.13;;;;;;;14.01;70.50;101027.72;5025711;28;20041;-77
2022/06/21 01:57:13;;;;;;;;;;;;;;;13.72;71.39;101028.63;5024965;28;20054;-77
2022/06/21 01:59:41;;;;;;;8.65;3.50;;;;;;;13.74;71.34;101017.06;5026030;28;20347;-77
2022/06/21 02:02:12;;;;;;;10.45;3.97;;;;;;;13.87;71.55;101025.06;5026629;28;20041;-77
2022/06/21 02:04:46;;;;;;;11.80;4.03;;;;;;;14.37;69.38;101025.47;5026241;28;20519;-77
2022/06/21 02:07:19;;;;;;;8.75;3.47;;;;;;;14.31;69.14;101020.53;5025672;28;20050;-77
2022/06/21 02:09:47;;;;;;;;;;;;;;;14.38;69.13;101021.03;5025417;28;20081;-77
2022/06/21 02:12:15;;;;;;;10.68;5.28;;;;;;;14.08;69.91;101029.03;5027026;28;19921;-77
2022/06/21 02:14:48;;;;;;;11.63;3.65;;;;;;;14.20;69.83;101033.53;5025107;28;20056;-77
2022/06/21 02:17:19;;;;;;;7.30;3.88;;;;;;;13.99;70.33;101024.34;5027305;28;20045;-77
2022/06/21 02:19:50;;;;;;;9.63;3.45;;;;;;;14.01;70.38;101027.72;5023348;28;20046;-77
2022/06/21 02:22:21;;;;;;;10.98;4.50;;;;;;;13.75;71.83;101026.66;5024923;28;20075;-77
2022/06/21 02:24:47;;;;;;;9.23;4.18;;;;;;;14.21;69.79;101034.41;5026282;28;20104;-77
2022/06/21 02:27:17;;;;;;;8.02;3.35;;;;;;;14.09;70.25;101022.81;5023964;28;20046;-78
2022/06/21 02:29:48;;;;;;;9.38;3.70;;;;;;;14.09;70.28;101030.72;5024654;28;20057;-77
2022/06/21 02:32:20;;;;;;;8.32;3.72;;;;;;;14.11;70.76;101026.22;5024370;28;20054;-77
2022/06/21 02:34:49;;;;;;;8.15;3.88;;;;;;;14.41;69.24;101024.31;5025929;28;20110;-76
2022/06/21 02:37:16;;;;;;;10.32;3.90;;;;;;;14.21;70.44;101024.69;5025364;28;20041;-76
2022/06/21 02:39:44;;;;;;;15.07;4.68;;;;;;;14.19;70.73;101023.13;5023657;28;20048;-76
2022/06/21 02:42:18;;;;;;;12.13;4.10;;;;;;;14.05;70.70;101031.84;5025921;28;20052;-76
2022/06/21 02:44:48;;;;;;;9.70;4.13;;;;;;;14.05;71.13;101032.72;5026405;28;20041;-76
2022/06/21 02:47:18;;;;;;;11.75;4.72;;;;;;;13.92;71.35;101026.50;5022986;28;20506;-77
2022/06/21 02:49:50;;;;;;;10.75;4.13;;;;;;;13.95;71.39;101028.94;5023479;28;20037;-77
2022/06/21 02:52:22;;;;;;;17.30;4.22;;;;;;;13.76;72.45;101027.50;5023226;28;20045;-77
2022/06/21 02:54:53;;;;;;;11.25;4.43;;;;;;;13.71;72.57;101033.03;5025778;28;20099;-77
2022/06/21 02:57:26;;;;;;;8.65;4.18;;;;;;;13.79;72.22;101030.81;5025597;28;20061;-77
2022/06/21 02:59:54;;;;;;;11.45;4.35;;;;;;;13.86;72.06;101024.22;5005767;28;20053;-77
2022/06/21 03:02:24;;;;;;;13.45;4.78;;;;;;;13.71;72.36;101024.31;5004172;28;20394;-76
2022/06/21 03:04:53;;;;;;;9.50;4.30;;;;;;;13.48;73.27;101031.81;5017820;28;20041;-76
2022/06/21 03:07:23;;;;;;;9.15;4.28;;;;;;;13.63;72.95;101032.69;5024008;28;20037;-76
2022/06/21 03:09:50;;;;;;;12.95;4.32;;;;;;;13.70;73.05;101019.97;5024301;28;20091;-76
2022/06/21 03:12:19;;;;;;;10.40;4.88;;;;;;;13.64;72.70;101027.31;5022994;28;20060;-76
2022/06/21 03:14:49;;;;;;;14.63;4.10;;;;;;;13.58;73.44;101027.69;5022749;28;20072;-76
2022/06/21 03:17:18;;;;;;;11.07;4.47;;;;;;;13.35;74.52;101017.63;5024944;28;20059;-76
2022/06/21 03:19:48;;;;;;;14.98;4.43;;;;;;;13.12;75.23;101015.50;5022475;28;20045;-76
2022/06/21 03:22:18;;;;;;;14.52;4.60;;;;;;;13.10;75.68;101012.97;5025680;28;20415;-76
2022/06/21 03:24:46;;;;;;;15.93;4.47;;;;;;;12.91;76.94;101016.69;5023806;28;20042;-76
2022/06/21 03:27:20;;;;;;;9.05;4.30;;;;;;;13.02;76.64;101022.19;5025523;28;20052;-76
2022/06/21 03:29:48;;;;;;;13.80;4.53;;;;;;;13.02;77.16;101009.88;5025558;28;20053;-76
2022/06/21 03:32:15;;;;;;;17.60;4.70;;;;;;;12.87;78.04;101015.16;5024168;28;20453;-76
2022/06/21 03:34:42;;;;;;;17.05;5.47;;;;;;;13.03;77.31;101018.63;5025297;28;20045;-77
2022/06/21 03:37:09;;;;;;;12.95;4.60;;;;;;;13.39;76.14;101029.69;5025162;28;20042;-77
2022/06/21 03:42:25;;;;;;;17.75;5.68;;;;;;;13.36;75.93;101024.63;5023963;28;20060;-77
2022/06/21 03:44:58;;;;;;;9.57;4.38;;;;;;;13.73;74.52;101017.16;5023890;28;20486;-76
2022/06/21 03:47:30;;;;;;;14.50;4.35;;;;;;;14.13;73.23;101004.06;5024386;28;20127;-76
2022/06/21 03:50:02;;;;;;;15.07;5.43;;;;;;;14.08;73.41;101023.75;5025468;28;20493;-77
2022/06/21 03:52:43;;;;;;;16.35;4.68;;;;;;;14.39;71.91;101017.44;5025508;28;20131;-77
2022/06/21 03:55:19;;;;;;;10.95;4.45;;;;;;;14.58;71.34;101018.00;5023603;28;20049;-77
2022/06/21 03:57:51;;;;;;;10.48;4.03;;;;;;;14.21;72.47;101019.44;5024208;28;20045;-77
2022/06/21 04:00:19;;;;;;;18.73;4.32;;;;;;;14.14;72.95;101028.66;5024488;28;20049;-77
2022/06/21 04:02:52;;;;;;;10.65;4.45;;;;;;;14.19;72.97;101031.03;5023900;28;20049;-77
2022/06/21 04:05:25;;;;;;;17.05;4.70;;;;;;;13.79;73.93;101032.59;5024222;28;20045;-77
2022/06/21 04:07:57;;;;;;;13.45;4.25;;;;;;;14.32;72.89;101027.50;5022392;28;20107;-77
2022/06/21 04:10:28;;;;;;;15.13;4.30;;;;;;;14.05;73.41;101037.97;5004981;28;20046;-78
2022/06/21 04:13:00;;;;;;;12.90;3.70;;;;;;;14.03;73.37;101037.25;5006502;28;20441;-78
2022/06/21 04:15:36;;;;;;;13.60;3.80;;;;;;;13.63;75.62;101038.78;5023677;28;20057;-77
2022/06/21 04:18:10;;;;;;;10.20;4.57;;;;;;;13.69;74.99;101047.25;5023964;28;20460;-77
2022/06/21 04:20:43;;;;;;;9.30;3.75;;;;;;;13.95;74.47;101044.75;5025436;28;20533;-78
2022/06/21 04:23:15;;;;;;;13.63;3.83;;;;;;;14.00;74.00;101039.22;5030574;28;20049;-78
2022/06/21 04:25:46;;;;;;;;;;;;;;;14.07;74.34;101032.63;5030181;28;20049;-78
2022/06/21 04:28:18;;;;;;;10.43;3.80;;;;;;;13.97;74.96;101028.84;5032132;28;19921;-78
2022/06/21 04:30:52;;;;;;;11.20;4.18;;;;;;;13.91;75.16;101031.84;5031806;28;20130;-78
2022/06/21 04:33:24;;;;;;;10.85;3.90;;;;;;;13.84;75.55;101033.16;5031141;28;20579;-78
2022/06/21 04:35:56;;;;;;;11.27;3.88;;;;;;;14.44;73.64;101029.44;5030017;28;20091;-77
2022/06/21 04:38:27;;;;;;;13.75;3.90;;;;;;;14.70;72.16;101016.38;5030210;28;20037;-78
2022/06/21 04:41:01;;;;;;;8.30;3.42;;;;;;;14.87;71.49;101024.03;5029994;28;20041;-78
2022/06/21 04:43:33;;;;;;;12.07;4.20;;;;;;;14.58;72.50;101026.75;5031797;28;20048;-78
2022/06/21 04:46:05;;;;;;;10.73;4.07;;;;;;;14.74;72.96;101023.13;5031486;28;20048;-78
2022/06/21 04:48:37;;;;;;;8.80;3.53;;;;;;;15.02;71.82;101017.75;5029300;28;20040;-78
2022/06/21 04:51:11;;;;;;;13.18;4.45;;;;;;;14.94;72.21;101020.88;5038572;28;20049;-78
2022/06/21 04:53:46;;;;;;;12.32;3.97;;;;;;;14.89;72.61;101024.78;5031290;28;20037;-79
2022/06/21 04:56:20;;;;;;;12.80;3.65;;;;;;;14.94;72.56;101020.88;5028743;28;20075;-78
2022/06/21 04:58:49;;;;;;;12.52;3.80;;;;;;;14.97;71.89;101019.84;5031331;28;20041;-78
2022/06/21 05:01:32;;;;;;;13.55;3.97;;;;;;;15.07;71.98;101032.38;5033704;28;20111;-78
2022/06/21 05:04:02;;;;;;;13.95;4.05;;;;;;;15.43;71.20;101031.72;5031524;28;20041;-78
2022/06/21 05:06:29;;;;;;;13.93;4.18;;;;;;;15.20;71.79;101029.75;5034328;28;20045;-78
2022/06/21 05:08:56;;;;;;;12.48;3.42;;;;;;;15.43;71.14;101031.72;5030028;28;20051;-78
2022/06/21 05:11:24;;;;;;;15.00;3.60;;;;;;;15.42;70.72;101037.06;5030535;28;20067;-78
2022/06/21 05:13:54;;;;;;;12.68;4.03;;;;;;;15.73;69.76;101046.47;5031233;28;20050;-78
2022/06/21 05:16:25;;;;;;;12.75;3.70;;;;;;;16.01;68.48;101031.25;5028753;28;20115;-79
2022/06/21 05:18:56;;;;;;;12.23;3.20;;;;;;;16.29;68.15;101035.47;5031364;28;20481;-78
2022/06/21 05:21:29;;;;;;;11.43;3.42;;;;;;;16.63;67.56;101028.59;5026745;28;20567;-78
2022/06/21 05:23:56;;;;;;;19.10;4.38;;;;;;;16.86;66.28;101024.28;5025755;28;20099;-78
2022/06/21 05:26:29;;;;;;;11.18;3.25;;;;;;;16.79;67.17;101029.19;5031553;28;20045;-78
2022/06/21 05:29:01;;;;;;;9.13;3.15;;;;;;;17.15;65.99;101035.38;5020656;28;20092;-78
2022/06/21 05:31:32;;;;;;;;;;;;;;;17.37;64.96;101036.31;5022165;28;20551;-78
2022/06/21 05:34:02;;;;;;;17.98;3.53;;;;;;;17.61;64.31;101038.13;5020758;28;19986;-78
2022/06/21 05:36:31;;;;;;;20.00;4.03;;;;;;;18.07;62.23;101038.91;5026853;28;20091;-78
2022/06/21 05:39:01;;;;;;;13.98;3.85;;;;;;;18.23;62.31;101035.91;5026309;28;20548;-78
2022/06/21 05:41:31;;;;;;;8.98;2.78;;;;;;;18.08;62.16;101048.56;5026112;28;20111;-78
2022/06/21 05:44:00;;;;;;;12.20;3.42;;;;;;;18.40;61.44;101054.81;5024857;28;20034;-78
2022/06/21 05:46:31;;;;;;;14.13;3.20;;;;;;;18.62;61.09;101058.47;5027627;28;20049;-78
2022/06/21 05:49:01;;;;;;;12.30;3.05;;;;;;;18.94;59.60;101064.69;5027586;28;20126;-78
2022/06/21 05:51:31;;;;;;;9.98;3.28;;;;;;;19.16;58.22;101069.94;5030800;28;20111;-78
2022/06/21 05:54:02;;;;;;;17.15;3.95;;;;;;;19.41;57.63;101066.97;5026414;28;20046;-78
2022/06/21 05:56:30;;;;;;;12.70;3.35;;;;;;;19.39;56.72;101068.03;5024729;28;20053;-75
2022/06/21 05:59:01;;;;;;;9.65;2.72;;;;;;;19.58;56.98;101064.72;5027495;28;20481;-75
2022/06/21 06:01:35;;;;;;;8.52;2.80;;;;;;;19.71;56.57;101076.00;5024472;28;20468;-76
2022/06/21 06:04:08;;;;;;;10.90;2.90;;;;;;;19.57;57.52;101060.38;5026963;28;20045;-76
2022/06/21 06:06:36;;;;;;;11.52;3.20;;;;;;;19.98;56.04;101046.22;5021859;28;20046;-76
2022/06/21 06:09:07;;;;;;;13.10;2.90;;;;;;;20.28;54.57;101036.44;5026783;28;20061;-77
2022/06/21 06:12:01;;;;;;;8.25;2.95;;;;;;;20.45;54.48;101055.41;5027356;28;20046;-77
2022/06/21 06:14:34;;;;;;;11.40;2.85;;;;;;;20.46;53.40;101071.28;5026287;28;20038;-77
2022/06/21 06:17:07;;;;;;;12.68;3.15;;;;;;;20.76;53.62;101070.38;5025753;28;20521;-77
2022/06/21 06:19:39;;;;;;;11.73;3.08;;;;;;;21.20;52.64;101067.25;5025407;28;20049;-76
2022/06/21 06:22:19;;;;;;;10.65;3.10;;;;;;;21.38;51.79;101071.88;5026854;28;20102;-76
2022/06/21 06:24:54;;;;;;;10.43;3.08;;;;;;;21.43;50.82;101069.66;5022022;28;20056;-76
2022/06/21 06:27:29;;;;;;;14.45;3.53;;;;;;;21.58;50.76;101087.72;5026105;28;20452;-76
2022/06/21 06:30:00;;;;;;;9.80;3.42;;;;;;;22.17;50.30;101081.38;5026134;28;20045;-76
2022/06/21 06:32:33;;;;;;;11.18;2.53;;;;;;;21.77;49.95;101084.22;5025626;28;20761;-76
2022/06/21 06:35:00;;;;;;;11.27;2.67;;;;;;;21.93;49.35;101072.97;5024464;28;20479;-76
2022/06/21 06:37:32;;;;;;;8.80;2.92;;;;;;;22.31;48.60;101068.38;5025356;28;20050;-76
2022/06/21 06:39:59;;;;;;;10.73;2.97;;;;;;;21.76;49.47;101070.03;5025297;28;20045;-76
2022/06/21 06:42:30;;;;;;;18.33;3.67;;;;;;;22.14;49.82;101066.44;5024719;28;20045;-76
2022/06/21 06:45:00;;;;;;;16.67;2.97;;;;;;;22.51;47.90;101054.91;5025317;28;20045;-76
2022/06/21 06:47:37;;;;;;;13.52;2.63;;;;;;;22.36;48.42;101059.06;5024399;28;20052;-76
2022/06/21 06:50:12;;;;;;;11.38;2.67;;;;;;;22.86;45.70;101068.41;5016491;28;20135;-76
2022/06/21 06:52:42;;;;;;;10.70;3.08;;;;;;;23.04;46.63;101073.75;5025410;28;20049;-76
2022/06/21 06:55:15;;;;;;;11.52;2.67;;;;;;;23.61;45.71;101075.19;5025872;28;20122;-76
2022/06/21 06:57:45;;;;;;;10.18;2.70;;;;;;;23.53;45.54;101075.97;5021728;28;20049;-76
2022/06/21 07:00:15;;;;;;;12.05;3.00;;;;;;;23.33;46.64;101073.53;5024694;28;20057;-76
2022/06/21 07:02:46;;;;;;;12.43;2.65;;;;;;;23.58;46.34;101076.31;5024907;28;20045;-76
2022/06/21 07:05:19;;;;;;;9.88;2.65;;;;;;;23.11;44.62;101081.03;5026077;28;20053;-76
2022/06/21 07:07:50;;;;;;;13.30;3.05;;;;;;;23.45;44.62;101078.56;5025697;28;20129;-76
2022/06/21 07:10:20;;;;;;;13.48;2.90;;;;;;;23.73;45.10;101081.94;5024827;28;20092;-76
2022/06/21 07:12:47;;;;;;;15.77;3.80;;;;;;;23.52;45.21;101071.59;5025267;28;20046;-76
2022/06/21 07:15:14;;;;;;;13.80;3.45;;;;;;;23.83;45.44;101079.19;5025689;28;20045;-76
2022/06/21 07:17:50;;;;;;;11.90;2.85;;;;;;;23.98;44.87;101088.34;5025458;28;20556;-76
2022/06/21 07:20:20;;;;;;;8.65;2.42;;;;;;;23.98;44.05;101077.63;5024982;28;20494;-76
2022/06/21 07:22:47;;;;;;;12.75;2.67;;;;;;;23.99;45.05;101069.41;5024153;28;20045;-76
2022/06/21 07:25:21;;;;;;;10.18;2.33;;;;;;;24.35;44.87;101062.13;5024087;28;20095;-76
2022/06/21 07:27:52;;;;;;;8.00;2.28;;;;;;;24.53;42.92;101068.25;5026038;28;20060;-76
2022/06/21 07:30:21;;;;;;;14.77;2.78;;;;;;;24.41;40.91;101074.03;5024464;28;20525;-77
2022/06/21 07:32:54;;;;;;;8.05;2.25;;;;;;;24.50;42.20;101079.28;5023646;28;20041;-76
2022/06/21 07:35:25;;;;;;;7.93;2.38;;;;;;;24.88;43.63;101072.56;5024234;28;20441;-76
2022/06/21 07:37:55;;;;;;;7.68;2.53;;;;;;;25.28;42.14;101070.97;5024884;28;20103;-76
2022/06/21 07:40:27;;;;;;;8.35;2.17;;;;;;;25.67;42.25;101069.34;5025425;28;20104;-77
2022/06/21 07:42:59;;;;;;;9.23;2.45;;;;;;;25.96;44.49;101066.13;5025905;28;20037;-76
2022/06/21 07:45:31;;;;;;;8.50;2.33;;;;;;;25.35;41.81;101063.94;5023852;28;20045;-76
2022/06/21 07:48:05;;;;;;;12.98;2.58;;;;;;;25.61;40.63;101070.84;5025125;28;20061;-76
2022/06/21 07:50:38;;;;;;;8.18;2.35;;;;;;;25.41;40.12;101063.28;5021859;28;20041;-76
2022/06/21 07:53:11;;;;;;;5.68;2.25;;;;;;;26.04;38.39;101063.41;5024493;28;20524;-76
2022/06/21 07:55:41;;;;;;;9.32;2.75;;;;;;;26.22;38.55;101064.06;5025337;28;20049;-76
2022/06/21 07:58:13;;;;;;;7.97;2.00;;;;;;;26.00;41.87;101076.38;5024717;28;20091;-76
2022/06/21 08:09:13;;;;;;;9.88;2.30;;;;;;;25.97;38.25;101071.34;5024460;28;20052;-76
2022/06/21 08:11:42;;;;;;;7.47;2.22;;;;;;;26.64;37.33;101064.56;5022985;28;20046;-75
2022/06/21 08:14:09;;;;;;;11.30;2.28;;;;;;;27.08;35.89;101069.44;5024017;28;20037;-76
2022/06/21 08:16:43;;;;;;;7.15;2.10;;;;;;;26.62;37.28;101076.53;5025229;28;20072;-77
2022/06/21 08:19:15;;;;;;;11.27;2.30;;;;;;;26.42;38.15;101075.28;5023980;28;20498;-76
2022/06/21 08:21:46;;;;;;;;;;;;;;;27.19;38.58;101078.94;5025144;28;20053;-76
2022/06/21 08:24:20;;;;;;;4.82;1.70;;;;;;;26.65;37.88;101073.47;5020760;28;19925;-76
2022/06/21 08:26:50;;;;;;;6.95;2.10;;;;;;;27.00;35.81;101070.31;5028841;28;20095;-76
2022/06/21 08:29:27;;;;;;;8.75;2.13;;;;;;;27.42;36.17;101079.78;5033658;28;20049;-76
2022/06/21 08:31:56;;;;;;;9.82;2.10;;;;;;;27.79;34.31;101095.16;5035443;28;20130;-76
2022/06/21 08:34:31;;;;;;;6.57;2.45;;;;;;;27.19;34.77;101087.03;5025305;28;20049;-76
2022/06/21 08:37:02;;;;;;;11.52;2.45;;;;;;;27.12;36.68;101083.38;5024024;28;20565;-76
2022/06/21 08:39:34;;;;;;;6.95;2.10;;;;;;;26.82;36.20;101093.09;5024242;28;20049;-76
2022/06/21 08:42:18;;;;;;;13.45;2.72;;;;;;;25.54;37.24;101079.75;5023517;28;20045;-75
2022/06/21 08:48:52;;;;;;;10.10;2.50;;;;;;;25.97;38.30;101087.47;5005422;28;20101;-76
2022/06/21 08:51:46;;;;;;;8.15;2.00;;;;;;;25.98;38.43;101081.06;5005182;28;20514;-76
2022/06/21 08:54:26;;;;;;;6.00;2.13;;;;;;;26.55;38.80;101081.78;5004428;28;20407;-76
2022/06/21 08:57:00;;;;;;;7.95;2.00;;;;;;;26.35;36.95;101090.44;5003546;28;20470;-76
2022/06/21 08:59:33;;;;;;;6.55;1.90;;;;;;;25.49;37.02;101084.75;5004043;28;20126;-75
2022/06/21 09:02:07;;;;;;;8.57;2.25;;;;;;;25.40;37.09;101080.38;5004940;28;20521;-75
2022/06/21 09:04:44;;;;;;;6.47;2.08;;;;;;;26.28;35.22;101079.50;5025589;28;20544;-75
2022/06/21 09:07:39;;;;;;;8.90;2.20;;;;;;;26.42;36.64;101081.47;5024064;28;20069;-76
2022/06/21 09:10:25;;;;;;;7.80;2.22;;;;;;;26.63;36.43;101076.38;5028976;28;20041;-75
2022/06/21 09:13:00;;;;;;;7.20;2.25;;;;;;;26.14;35.80;101074.81;5026572;28;20753;-76
2022/06/21 09:15:38;;;;;;;7.90;1.80;;;;;;;26.31;39.72;101071.09;5029368;28;20049;-76
2022/06/21 09:18:19;;;;;;;6.65;1.80;;;;;;;26.58;34.46;101075.19;5026332;28;20038;-76
2022/06/21 09:20:56;;;;;;;6.33;2.07;;;;;;;26.13;35.25;101082.03;5025011;28;20092;-76
2022/06/21 09:23:38;;;;;;;8.77;2.70;;;;;;;25.58;37.17;101081.09;5028272;28;20284;-75
2022/06/21 09:26:09;;;;;;;9.02;2.20;;;;;;;25.31;37.61;101082.25;5028026;28;20464;-75
2022/06/21 09:28:42;;;;;;;8.00;1.98;;;;;;;25.38;39.04;101079.72;5027185;28;20045;-75
2022/06/21 09:31:18;;;;;;;7.15;1.90;;;;;;;25.78;38.74;101084.28;5028112;28;20045;-76
2022/06/21 09:33:49;;;;;;;8.10;1.95;;;;;;;26.41;38.63;101084.34;5028552;28;20046;-76
2022/06/21 09:36:24;;;;;;;7.22;1.73;;;;;;;27.14;36.42;101092.09;5028936;28;20472;-76
2022/06/21 09:39:03;;;;;;;8.55;2.47;;;;;;;27.17;36.72;101086.34;5025456;28;20559;-76
2022/06/21 09:41:41;;;;;;;5.63;2.10;;;;;;;27.09;36.41;101082.69;5027900;28;20048;-76
2022/06/21 09:44:16;;;;;;;5.10;2.00;;;;;;;26.23;34.41;101073.81;5027463;28;20072;-75
2022/06/21 09:46:55;;;;;;;5.20;2.05;;;;;;;26.01;37.16;101079.91;5027318;28;20081;-75
2022/06/21 09:49:35;;;;;;;11.70;2.30;;;;;;;26.67;41.22;101081.38;5026043;28;20049;-76
2022/06/21 09:52:11;;;;;;;8.75;2.40;;;;;;;26.96;34.20;101085.13;5028956;28;20099;-76
2022/06/21 09:54:47;;;;;;;5.75;2.10;;;;;;;26.09;34.52;101085.22;5026568;28;20095;-75
2022/06/21 09:57:25;;;;;;;7.75;2.03;;;;;;;25.26;36.84;101076.50;5025474;28;20049;-75
2022/06/21 10:00:01;;;;;;;9.23;2.20;;;;;;;25.75;39.54;101088.16;5024916;28;20415;-76
2022/06/21 10:02:38;;;;;;;7.40;2.40;;;;;;;26.25;37.96;101095.13;5026236;28;20056;-76
2022/06/21 10:05:15;;;;;;;7.03;1.92;;;;;;;25.95;37.27;101088.63;5025358;28;20100;-76
2022/06/21 10:07:56;;;;;;;8.00;2.10;;;;;;;26.50;35.43;101080.59;5026857;28;20045;-75
2022/06/21 10:10:36;;;;;;;7.50;1.95;;;;;;;27.01;34.89;101077.34;5024728;28;20417;-76
2022/06/21 10:13:16;;;;;;;6.75;1.75;;;;;;;26.23;35.38;101081.03;5026761;28;20038;-76
2022/06/21 10:15:51;;;;;;;6.90;2.08;;;;;;;24.93;36.89;101086.34;5027029;28;20053;-76
2022/06/21 10:18:31;;;;;;;8.27;2.28;;;;;;;24.76;38.02;101084.56;5026549;28;20160;-75
2022/06/21 10:21:24;;;;;;;8.95;2.10;;;;;;;24.97;38.12;101087.69;5026819;28;20041;-76
2022/06/21 10:24:07;;;;;;;9.52;2.53;;;;;;;25.77;40.63;101080.75;5022549;28;20561;-75
2022/06/21 10:26:50;;;;;;;6.38;1.92;;;;;;;26.54;37.96;101090.84;5026861;28;20049;-75
2022/06/21 10:29:26;;;;;;;;;;;;;;;26.54;36.72;101084.63;5024762;28;20551;-75
2022/06/21 10:32:10;;;;;;;10.20;2.05;;;;;;;25.98;35.62;101089.09;5026073;28;20250;-75
2022/06/21 10:35:01;;;;;;;9.25;2.47;;;;;;;26.55;36.47;101081.78;5025618;28;20053;-76
2022/06/21 10:37:39;;;;;;;9.70;2.43;;;;;;;26.19;35.72;101087.78;5025068;28;20046;-75
2022/06/21 10:40:22;;;;;;;6.57;2.13;;;;;;;26.22;35.75;101085.56;5006657;28;20289;-75
2022/06/21 10:43:25;;;;;;;9.82;2.47;;;;;;;26.51;37.25;101083.13;5006220;28;20081;-76
2022/06/21 10:45:55;;;;;;;5.22;2.05;;;;;;;27.13;38.31;101071.56;5017583;28;20041;-76
2022/06/21 10:49:05;;;;;;;7.57;1.95;;;;;;;27.76;37.40;101076.66;5025638;28;20050;-76
2022/06/21 10:51:43;;;;;;;7.30;2.20;;;;;;;27.74;33.24;101081.41;5026593;28;20053;-76
2022/06/21 10:54:26;;;;;;;7.68;2.65;;;;;;;27.75;36.51;101083.06;5026536;28;20108;-76
2022/06/21 10:57:11;;;;;;;7.93;2.13;;;;;;;27.86;35.74;101071.84;5027301;28;20045;-76
2022/06/21 11:02:59;;;;;;;5.85;1.80;;;;;;;27.49;34.38;101073.50;5007606;28;20053;-76
2022/06/21 11:05:33;;;;;;;7.45;2.15;;;;;;;27.79;37.21;101060.94;5006223;28;20414;-76
2022/06/21 11:08:08;;;;;;;9.60;2.13;;;;;;;28.06;35.22;101068.44;5006752;28;20042;-77
2022/06/21 11:10:40;;;;;;;6.00;2.03;;;;;;;28.15;34.43;101060.28;5026043;28;20033;-76
2022/06/21 11:13:11;;;;;;;;;;;;;;;29.04;33.69;101056.47;5026088;28;20045;-76
2022/06/21 11:15:50;;;;;;;6.32;2.00;;;;;;;28.63;30.24;101056.16;5027045;28;19920;-76
2022/06/21 11:18:31;;;;;;;6.35;2.08;;;;;;;28.70;31.66;101055.25;5027808;28;20049;-76
2022/06/21 11:21:12;;;;;;;6.80;2.05;;;;;;;28.85;29.65;101047.97;5025126;28;20106;-76
2022/06/21 11:23:53;;;;;;;9.98;2.28;;;;;;;28.74;31.49;101039.53;5026455;28;20076;-76
2022/06/21 11:26:28;;;;;;;5.63;2.13;;;;;;;28.80;35.25;101038.75;5025636;28;20060;-77
2022/06/21 11:29:03;;;;;;;6.45;2.20;;;;;;;28.50;34.35;101040.63;5025130;28;20095;-77
2022/06/21 11:31:42;;;;;;;12.00;2.00;;;;;;;28.53;35.99;101042.94;5025479;28;20536;-77
2022/06/21 11:34:20;;;;;;;5.45;1.65;;;;;;;29.05;33.25;101033.84;5024627;28;20417;-77
2022/06/21 11:36:56;;;;;;;7.40;1.80;;;;;;;29.09;32.84;101043.22;5025077;28;20045;-77
2022/06/21 11:39:34;;;;;;;8.38;2.33;;;;;;;29.44;33.77;101036.94;5023429;28;20046;-77
2022/06/21 11:42:14;;;;;;;5.05;2.15;;;;;;;29.80;30.16;101026.84;5024972;28;20037;-76
2022/06/21 11:45:14;;;;;;;6.20;1.90;;;;;;;28.72;29.98;101019.97;5024734;28;20497;-76
2022/06/21 11:48:06;;;;;;;14.15;2.65;;;;;;;28.88;33.32;101023.28;5025602;28;20056;-76
2022/06/21 11:50:45;;;;;;;9.48;2.08;;;;;;;28.90;33.99;101021.22;5023805;28;20552;-76
2022/06/21 11:53:34;;;;;;;7.97;1.75;;;;;;;29.24;32.38;101017.81;5023819;28;20395;-76
2022/06/21 11:56:07;;;;;;;7.35;1.70;;;;;;;29.35;33.53;101013.78;5025682;28;20099;-76
2022/06/21 11:58:39;;;;;;;6.53;1.73;;;;;;;29.83;29.66;101012.91;5025961;28;20121;-76
2022/06/21 12:01:15;;;;;;;4.45;1.63;;;;;;;29.94;30.49;101001.59;5024368;28;20041;-76
2022/06/21 12:03:55;;;;;;;4.03;1.33;;;;;;;30.18;29.70;100997.56;5024603;28;20052;-76
2022/06/21 12:06:29;;;;;;;5.60;1.40;;;;;;;30.12;30.37;101005.66;5024926;28;20046;-76
2022/06/21 12:09:01;;;;;;;7.55;1.65;;;;;;;29.80;29.49;101007.91;5021711;28;20048;-75
2022/06/21 12:11:39;;;;;;;3.65;1.50;;;;;;;29.56;29.06;101005.69;5025059;28;20046;-75